Aviation Digital Data Service (ADDS)

Output produced by TAFs form (0451 UTC 30 March 2017)
found at http://www.aviationweather.gov/adds/tafs/
 
METAR text: RJSI 300400Z 21007KT 170V250 9999 FEW050 BKN060 14/01 Q1015
Conditions at: RJSI (HANAMAKI AIRPORT, JP) observed 0400 UTC 30 March 2017
Temperature: 14.0°C (57°F)
Dewpoint: 1.0°C (34°F) [RH = 41%]
Pressure (altimeter): 29.97 inches Hg (1015.0 mb)
Winds: from the SSW (210 degrees) at 8 MPH (7 knots; 3.6 m/s)
Visibility: 6 or more miles (10+ km)
Ceiling: 6000 feet AGL
Clouds: few clouds at 5000 feet AGL
broken clouds at 6000 feet AGL
Weather: no significant weather observed at this time